sensor_id;sensor_type;location;lat;lon;timestamp;temperature;humidity
76855;DHT22;65828;44.726;37.764;2022-12-20T00:01:28;-0.11;64.95
76855;DHT22;65828;44.726;37.764;2022-12-20T00:04:24;-0.07;64.79
76855;DHT22;65828;44.726;37.764;2022-12-20T00:07:13;-0.03;65.12
76855;DHT22;65828;44.726;37.764;2022-12-20T00:10:03;-0.02;65.54
76855;DHT22;65828;44.726;37.764;2022-12-20T00:12:51;0.05;65.80
76855;DHT22;65828;44.726;37.764;2022-12-20T00:15:44;0.02;65.63
76855;DHT22;65828;44.726;37.764;2022-12-20T00:18:40;0.09;65.44
76855;DHT22;65828;44.726;37.764;2022-12-20T00:21:32;0.08;66.17
76855;DHT22;65828;44.726;37.764;2022-12-20T00:24:32;-0.01;66.13
76855;DHT22;65828;44.726;37.764;2022-12-20T00:27:16;-0.00;65.85
76855;DHT22;65828;44.726;37.764;2022-12-20T00:30:17;0.04;65.82
76855;DHT22;65828;44.726;37.764;2022-12-20T00:33:02;0.01;66.32
76855;DHT22;65828;44.726;37.764;2022-12-20T00:35:59;-0.00;66.22
76855;DHT22;65828;44.726;37.764;2022-12-20T00:39:01;-0.01;65.88
76855;DHT22;65828;44.726;37.764;2022-12-20T00:41:58;-0.10;65.38
76855;DHT22;65828;44.726;37.764;2022-12-20T00:44:52;-0.22;65.80
76855;DHT22;65828;44.726;37.764;2022-12-20T00:47:41;-0.16;65.86
76855;DHT22;65828;44.726;37.764;2022-12-20T00:50:32;-0.24;65.75
76855;DHT22;65828;44.726;37.764;2022-12-20T00:53:24;-0.28;65.75
76855;DHT22;65828;44.726;37.764;2022-12-20T00:56:20;-0.28;65.79
76855;DHT22;65828;44.726;37.764;2022-12-20T00:59:14;-0.28;65.62
76855;DHT22;65828;44.726;37.764;2022-12-20T01:02:05;-0.24;65.56
76855;DHT22;65828;44.726;37.764;2022-12-20T01:04:54;-0.21;65.24
76855;DHT22;65828;44.726;37.764;2022-12-20T01:07:45;-0.23;65.07
76855;DHT22;65828;44.726;37.764;2022-12-20T01:10:41;-0.27;64.98
76855;DHT22;65828;44.726;37.764;2022-12-20T01:13:36;-0.28;64.85
76855;DHT22;65828;44.726;37.764;2022-12-20T01:16:41;-0.29;64.31
76855;DHT22;65828;44.726;37.764;2022-12-20T01:19:41;-0.26;64.78
76855;DHT22;65828;44.726;37.764;2022-12-20T01:22:36;-0.13;64.51
76855;DHT22;65828;44.726;37.764;2022-12-20T01:25:34;-0.09;64.32
76855;DHT22;65828;44.726;37.764;2022-12-20T01:28:39;-0.09;64.53
76855;DHT22;65828;44.726;37.764;2022-12-20T01:31:37;-0.02;64.39
76855;DHT22;65828;44.726;37.764;2022-12-20T01:34:36;0.02;64.14
76855;DHT22;65828;44.726;37.764;2022-12-20T01:37:33;0.04;63.82
76855;DHT22;65828;44.726;37.764;2022-12-20T01:40:30;0.08;64.06
76855;DHT22;65828;44.726;37.764;2022-12-20T01:43:56;0.14;64.16
76855;DHT22;65828;44.726;37.764;2022-12-20T01:46:51;0.17;64.72
76855;DHT22;65828;44.726;37.764;2022-12-20T01:49:47;0.19;65.70
76855;DHT22;65828;44.726;37.764;2022-12-20T01:52:46;0.18;66.31
76855;DHT22;65828;44.726;37.764;2022-12-20T01:55:37;0.17;66.96
76855;DHT22;65828;44.726;37.764;2022-12-20T01:58:28;0.15;67.36
76855;DHT22;65828;44.726;37.764;2022-12-20T02:01:21;0.14;67.10
76855;DHT22;65828;44.726;37.764;2022-12-20T02:04:13;0.15;67.10
76855;DHT22;65828;44.726;37.764;2022-12-20T02:07:07;0.07;67.53
76855;DHT22;65828;44.726;37.764;2022-12-20T02:10:03;0.12;67.58
76855;DHT22;65828;44.726;37.764;2022-12-20T02:12:58;0.14;67.66
76855;DHT22;65828;44.726;37.764;2022-12-20T02:15:54;0.15;67.57
76855;DHT22;65828;44.726;37.764;2022-12-20T02:22:22;0.01;68.01
76855;DHT22;65828;44.726;37.764;2022-12-20T02:28:55;-0.19;68.71
76855;DHT22;65828;44.726;37.764;2022-12-20T02:35:27;-0.16;68.94
76855;DHT22;65828;44.726;37.764;2022-12-20T02:41:22;-0.06;68.84
76855;DHT22;65828;44.726;37.764;2022-12-20T02:44:20;0.02;68.82
76855;DHT22;65828;44.726;37.764;2022-12-20T02:47:47;-0.00;69.16
76855;DHT22;65828;44.726;37.764;2022-12-20T02:50:38;0.03;69.24
76855;DHT22;65828;44.726;37.764;2022-12-20T02:53:27;0.06;69.32
76855;DHT22;65828;44.726;37.764;2022-12-20T02:56:36;0.14;69.00
76855;DHT22;65828;44.726;37.764;2022-12-20T02:59:40;0.16;69.12
76855;DHT22;65828;44.726;37.764;2022-12-20T03:02:48;0.06;69.20
76855;DHT22;65828;44.726;37.764;2022-12-20T03:05:45;-0.00;69.20
76855;DHT22;65828;44.726;37.764;2022-12-20T03:08:25;-0.06;69.22
76855;DHT22;65828;44.726;37.764;2022-12-20T03:11:00;-0.21;69.78
76855;DHT22;65828;44.726;37.764;2022-12-20T03:13:37;-0.23;70.07
76855;DHT22;65828;44.726;37.764;2022-12-20T03:16:16;-0.13;69.84
76855;DHT22;65828;44.726;37.764;2022-12-20T03:18:57;-0.01;69.35
76855;DHT22;65828;44.726;37.764;2022-12-20T03:21:37;0.05;68.92
76855;DHT22;65828;44.726;37.764;2022-12-20T03:24:27;0.13;68.46
76855;DHT22;65828;44.726;37.764;2022-12-20T03:27:25;0.17;68.65
76855;DHT22;65828;44.726;37.764;2022-12-20T03:30:10;0.12;68.83
76855;DHT22;65828;44.726;37.764;2022-12-20T03:33:00;0.16;68.68
76855;DHT22;65828;44.726;37.764;2022-12-20T03:36:00;0.17;68.79
76855;DHT22;65828;44.726;37.764;2022-12-20T03:39:08;0.12;69.07
76855;DHT22;65828;44.726;37.764;2022-12-20T03:42:09;0.05;69.41
76855;DHT22;65828;44.726;37.764;2022-12-20T03:45:06;0.02;69.77
76855;DHT22;65828;44.726;37.764;2022-12-20T03:48:00;0.07;69.54
76855;DHT22;65828;44.726;37.764;2022-12-20T03:50:53;0.15;69.23
76855;DHT22;65828;44.726;37.764;2022-12-20T03:53:47;0.14;69.02
76855;DHT22;65828;44.726;37.764;2022-12-20T03:57:03;0.19;68.78
76855;DHT22;65828;44.726;37.764;2022-12-20T04:00:07;0.16;68.96
76855;DHT22;65828;44.726;37.764;2022-12-20T04:02:56;0.09;69.35
76855;DHT22;65828;44.726;37.764;2022-12-20T04:05:52;-0.02;70.39
76855;DHT22;65828;44.726;37.764;2022-12-20T04:08:43;-0.02;70.69
76855;DHT22;65828;44.726;37.764;2022-12-20T04:11:47;0.02;70.81
76855;DHT22;65828;44.726;37.764;2022-12-20T04:14:22;0.06;70.42
76855;DHT22;65828;44.726;37.764;2022-12-20T04:17:01;0.14;70.29
76855;DHT22;65828;44.726;37.764;2022-12-20T04:19:45;0.18;70.27
76855;DHT22;65828;44.726;37.764;2022-12-20T04:22:46;0.19;71.03
76855;DHT22;65828;44.726;37.764;2022-12-20T04:25:35;0.12;70.98
76855;DHT22;65828;44.726;37.764;2022-12-20T04:28:35;-0.03;71.55
76855;DHT22;65828;44.726;37.764;2022-12-20T04:31:10;-0.09;72.17
76855;DHT22;65828;44.726;37.764;2022-12-20T04:33:46;-0.10;72.37
76855;DHT22;65828;44.726;37.764;2022-12-20T04:36:39;-0.09;72.38
76855;DHT22;65828;44.726;37.764;2022-12-20T04:39:19;-0.01;71.64
76855;DHT22;65828;44.726;37.764;2022-12-20T04:42:30;-0.00;71.91
76855;DHT22;65828;44.726;37.764;2022-12-20T04:45:28;0.05;72.27
76855;DHT22;65828;44.726;37.764;2022-12-20T04:48:29;0.03;73.38
76855;DHT22;65828;44.726;37.764;2022-12-20T04:51:28;0.06;73.24
76855;DHT22;65828;44.726;37.764;2022-12-20T04:54:19;0.13;73.11
76855;DHT22;65828;44.726;37.764;2022-12-20T04:57:07;0.13;72.83
76855;DHT22;65828;44.726;37.764;2022-12-20T04:59:51;0.13;72.74
76855;DHT22;65828;44.726;37.764;2022-12-20T05:02:52;0.14;72.70
76855;DHT22;65828;44.726;37.764;2022-12-20T05:05:50;0.14;72.79
76855;DHT22;65828;44.726;37.764;2022-12-20T05:08:44;-0.00;73.39
76855;DHT22;65828;44.726;37.764;2022-12-20T05:11:46;-0.12;73.99
76855;DHT22;65828;44.726;37.764;2022-12-20T05:14:49;-0.15;73.61
76855;DHT22;65828;44.726;37.764;2022-12-20T05:17:51;-0.17;72.77
76855;DHT22;65828;44.726;37.764;2022-12-20T05:21:06;-0.11;70.25
76855;DHT22;65828;44.726;37.764;2022-12-20T05:24:28;-0.05;70.26
76855;DHT22;65828;44.726;37.764;2022-12-20T05:27:46;-0.10;71.40
76855;DHT22;65828;44.726;37.764;2022-12-20T05:30:39;-0.19;71.94
76855;DHT22;65828;44.726;37.764;2022-12-20T05:33:43;-0.08;70.87
76855;DHT22;65828;44.726;37.764;2022-12-20T05:36:47;0.04;70.19
76855;DHT22;65828;44.726;37.764;2022-12-20T05:39:45;0.13;71.06
76855;DHT22;65828;44.726;37.764;2022-12-20T05:42:46;0.19;70.26
76855;DHT22;65828;44.726;37.764;2022-12-20T05:45:52;0.27;70.11
76855;DHT22;65828;44.726;37.764;2022-12-20T05:49:02;0.34;69.42
76855;DHT22;65828;44.726;37.764;2022-12-20T05:51:56;0.44;66.56
76855;DHT22;65828;44.726;37.764;2022-12-20T05:54:55;0.52;64.88
76855;DHT22;65828;44.726;37.764;2022-12-20T05:57:48;0.58;63.06
76855;DHT22;65828;44.726;37.764;2022-12-20T06:00:54;0.61;61.96
76855;DHT22;65828;44.726;37.764;2022-12-20T06:03:48;0.68;60.99
76855;DHT22;65828;44.726;37.764;2022-12-20T06:06:45;0.80;60.60
76855;DHT22;65828;44.726;37.764;2022-12-20T06:09:50;0.91;59.32
76855;DHT22;65828;44.726;37.764;2022-12-20T06:12:58;1.06;58.49
76855;DHT22;65828;44.726;37.764;2022-12-20T06:15:59;1.17;57.34
76855;DHT22;65828;44.726;37.764;2022-12-20T06:18:56;1.22;56.76
76855;DHT22;65828;44.726;37.764;2022-12-20T06:21:52;1.18;57.35
76855;DHT22;65828;44.726;37.764;2022-12-20T06:24:53;1.12;59.21
76855;DHT22;65828;44.726;37.764;2022-12-20T06:27:56;1.16;60.44
76855;DHT22;65828;44.726;37.764;2022-12-20T06:30:57;1.10;62.28
76855;DHT22;65828;44.726;37.764;2022-12-20T06:34:00;1.10;63.14
76855;DHT22;65828;44.726;37.764;2022-12-20T06:36:56;1.07;63.68
76855;DHT22;65828;44.726;37.764;2022-12-20T06:39:50;1.04;63.56
76855;DHT22;65828;44.726;37.764;2022-12-20T06:42:46;1.06;63.40
76855;DHT22;65828;44.726;37.764;2022-12-20T06:45:39;1.08;63.50
76855;DHT22;65828;44.726;37.764;2022-12-20T06:48:40;1.07;63.95
76855;DHT22;65828;44.726;37.764;2022-12-20T06:51:41;1.13;64.96
76855;DHT22;65828;44.726;37.764;2022-12-20T06:54:50;1.14;65.87
76855;DHT22;65828;44.726;37.764;2022-12-20T06:57:50;1.18;66.72
76855;DHT22;65828;44.726;37.764;2022-12-20T07:00:41;1.21;64.66
76855;DHT22;65828;44.726;37.764;2022-12-20T07:03:44;1.24;62.97
76855;DHT22;65828;44.726;37.764;2022-12-20T07:06:39;1.31;60.44
76855;DHT22;65828;44.726;37.764;2022-12-20T07:09:39;1.35;58.74
76855;DHT22;65828;44.726;37.764;2022-12-20T07:12:37;1.43;56.80
76855;DHT22;65828;44.726;37.764;2022-12-20T07:15:39;1.42;56.92
76855;DHT22;65828;44.726;37.764;2022-12-20T07:18:32;1.51;56.52
76855;DHT22;65828;44.726;37.764;2022-12-20T07:21:27;1.58;55.87
76855;DHT22;65828;44.726;37.764;2022-12-20T07:24:28;1.58;56.58
76855;DHT22;65828;44.726;37.764;2022-12-20T07:27:26;1.62;56.33
76855;DHT22;65828;44.726;37.764;2022-12-20T07:30:26;1.64;54.42
76855;DHT22;65828;44.726;37.764;2022-12-20T07:33:22;1.63;51.39
76855;DHT22;65828;44.726;37.764;2022-12-20T07:36:30;1.68;51.68
76855;DHT22;65828;44.726;37.764;2022-12-20T07:39:34;1.69;51.75
76855;DHT22;65828;44.726;37.764;2022-12-20T07:42:33;1.76;51.91
76855;DHT22;65828;44.726;37.764;2022-12-20T07:45:32;1.90;52.62
76855;DHT22;65828;44.726;37.764;2022-12-20T07:48:17;1.95;54.01
76855;DHT22;65828;44.726;37.764;2022-12-20T07:51:20;1.95;53.28
76855;DHT22;65828;44.726;37.764;2022-12-20T07:54:29;1.98;52.39
76855;DHT22;65828;44.726;37.764;2022-12-20T07:57:42;2.09;52.27
76855;DHT22;65828;44.726;37.764;2022-12-20T08:00:57;2.10;49.00
76855;DHT22;65828;44.726;37.764;2022-12-20T08:03:40;2.14;49.82
76855;DHT22;65828;44.726;37.764;2022-12-20T08:06:18;2.14;49.60
76855;DHT22;65828;44.726;37.764;2022-12-20T08:08:54;2.16;49.79
76855;DHT22;65828;44.726;37.764;2022-12-20T08:11:29;2.25;50.66
76855;DHT22;65828;44.726;37.764;2022-12-20T08:14:06;2.30;49.27
76855;DHT22;65828;44.726;37.764;2022-12-20T08:16:43;2.29;48.72
76855;DHT22;65828;44.726;37.764;2022-12-20T08:19:16;2.35;48.33
76855;DHT22;65828;44.726;37.764;2022-12-20T08:22:19;2.43;48.98
76855;DHT22;65828;44.726;37.764;2022-12-20T08:25:24;2.54;49.86
76855;DHT22;65828;44.726;37.764;2022-12-20T08:28:22;2.66;50.66
76855;DHT22;65828;44.726;37.764;2022-12-20T08:31:23;2.81;51.08
76855;DHT22;65828;44.726;37.764;2022-12-20T08:34:27;2.95;52.01
76855;DHT22;65828;44.726;37.764;2022-12-20T08:37:19;3.05;50.74
76855;DHT22;65828;44.726;37.764;2022-12-20T08:40:10;3.10;49.83
76855;DHT22;65828;44.726;37.764;2022-12-20T08:43:04;3.18;50.24
76855;DHT22;65828;44.726;37.764;2022-12-20T08:45:57;3.24;49.34
76855;DHT22;65828;44.726;37.764;2022-12-20T08:48:53;3.31;48.30
76855;DHT22;65828;44.726;37.764;2022-12-20T08:51:48;3.39;47.76
76855;DHT22;65828;44.726;37.764;2022-12-20T08:54:45;3.42;46.89
76855;DHT22;65828;44.726;37.764;2022-12-20T08:57:47;3.49;46.62
76855;DHT22;65828;44.726;37.764;2022-12-20T09:00:35;3.56;45.41
76855;DHT22;65828;44.726;37.764;2022-12-20T09:03:30;3.62;46.28
76855;DHT22;65828;44.726;37.764;2022-12-20T09:06:22;3.73;45.35
76855;DHT22;65828;44.726;37.764;2022-12-20T09:09:25;3.75;45.06
76855;DHT22;65828;44.726;37.764;2022-12-20T09:12:18;3.76;46.90
76855;DHT22;65828;44.726;37.764;2022-12-20T09:15:20;3.79;47.59
76855;DHT22;65828;44.726;37.764;2022-12-20T09:18:25;3.82;48.49
76855;DHT22;65828;44.726;37.764;2022-12-20T09:21:16;3.85;48.99
76855;DHT22;65828;44.726;37.764;2022-12-20T09:24:14;3.93;49.02
76855;DHT22;65828;44.726;37.764;2022-12-20T09:27:02;4.01;49.28
76855;DHT22;65828;44.726;37.764;2022-12-20T09:30:06;4.13;49.32
76855;DHT22;65828;44.726;37.764;2022-12-20T09:33:07;4.20;49.73
76855;DHT22;65828;44.726;37.764;2022-12-20T09:36:04;4.33;50.14
76855;DHT22;65828;44.726;37.764;2022-12-20T09:39:05;4.41;51.34
76855;DHT22;65828;44.726;37.764;2022-12-20T09:42:06;4.44;51.88
76855;DHT22;65828;44.726;37.764;2022-12-20T09:44:52;4.52;51.37
76855;DHT22;65828;44.726;37.764;2022-12-20T09:47:51;4.62;50.45
76855;DHT22;65828;44.726;37.764;2022-12-20T09:53:51;4.69;50.14
76855;DHT22;65828;44.726;37.764;2022-12-20T10:00:16;4.88;49.92
76855;DHT22;65828;44.726;37.764;2022-12-20T10:03:21;4.95;48.53
76855;DHT22;65828;44.726;37.764;2022-12-20T10:19:59;5.28;49.45
76855;DHT22;65828;44.726;37.764;2022-12-20T10:22:55;5.36;49.83
76855;DHT22;65828;44.726;37.764;2022-12-20T10:25:46;5.40;50.47
76855;DHT22;65828;44.726;37.764;2022-12-20T10:28:46;5.37;49.05
76855;DHT22;65828;44.726;37.764;2022-12-20T10:31:44;5.51;50.02
76855;DHT22;65828;44.726;37.764;2022-12-20T10:38:14;5.71;49.41
76855;DHT22;65828;44.726;37.764;2022-12-20T10:41:02;5.77;48.94
76855;DHT22;65828;44.726;37.764;2022-12-20T10:44:06;5.85;48.99
76855;DHT22;65828;44.726;37.764;2022-12-20T10:47:42;6.14;47.78
76855;DHT22;65828;44.726;37.764;2022-12-20T10:51:09;8.36;41.88
76855;DHT22;65828;44.726;37.764;2022-12-20T10:54:23;10.82;36.98
76855;DHT22;65828;44.726;37.764;2022-12-20T10:57:24;12.67;33.47
76855;DHT22;65828;44.726;37.764;2022-12-20T11:00:27;14.28;29.80
76855;DHT22;65828;44.726;37.764;2022-12-20T11:03:30;15.70;27.28
76855;DHT22;65828;44.726;37.764;2022-12-20T11:06:47;16.69;24.64
76855;DHT22;65828;44.726;37.764;2022-12-20T11:09:40;18.00;22.41
76855;DHT22;65828;44.726;37.764;2022-12-20T11:12:57;19.26;20.37
76855;DHT22;65828;44.726;37.764;2022-12-20T11:15:53;20.21;17.84
76855;DHT22;65828;44.726;37.764;2022-12-20T11:18:59;20.83;16.60
76855;DHT22;65828;44.726;37.764;2022-12-20T11:25:19;21.93;14.57
76855;DHT22;65828;44.726;37.764;2022-12-20T11:28:27;22.64;14.15
76855;DHT22;65828;44.726;37.764;2022-12-20T11:35:21;23.14;13.29
76855;DHT22;65828;44.726;37.764;2022-12-20T11:41:24;23.65;12.92
76855;DHT22;65828;44.726;37.764;2022-12-20T11:53:20;23.10;12.95
76855;DHT22;65828;44.726;37.764;2022-12-20T11:55:58;23.31;13.11
76855;DHT22;65828;44.726;37.764;2022-12-20T11:58:51;23.05;12.89
76855;DHT22;65828;44.726;37.764;2022-12-20T12:02:08;23.07;12.27
76855;DHT22;65828;44.726;37.764;2022-12-20T12:04:58;22.70;13.49
76855;DHT22;65828;44.726;37.764;2022-12-20T12:07:44;22.38;13.42
76855;DHT22;65828;44.726;37.764;2022-12-20T12:10:35;22.16;14.61
76855;DHT22;65828;44.726;37.764;2022-12-20T12:13:28;22.02;15.16
76855;DHT22;65828;44.726;37.764;2022-12-20T12:16:41;21.76;15.26
76855;DHT22;65828;44.726;37.764;2022-12-20T12:19:34;21.81;15.43
76855;DHT22;65828;44.726;37.764;2022-12-20T12:22:38;21.21;14.81
76855;DHT22;65828;44.726;37.764;2022-12-20T12:25:40;20.87;16.69
76855;DHT22;65828;44.726;37.764;2022-12-20T12:28:41;20.45;16.87
76855;DHT22;65828;44.726;37.764;2022-12-20T12:35:22;19.15;21.29
76855;DHT22;65828;44.726;37.764;2022-12-20T12:45:47;15.32;28.00
76855;DHT22;65828;44.726;37.764;2022-12-20T12:48:57;13.99;30.45
76855;DHT22;65828;44.726;37.764;2022-12-20T12:52:03;13.03;31.87
76855;DHT22;65828;44.726;37.764;2022-12-20T12:58:47;11.92;34.23
76855;DHT22;65828;44.726;37.764;2022-12-20T13:02:24;11.30;35.53
76855;DHT22;65828;44.726;37.764;2022-12-20T13:05:30;11.02;36.05
76855;DHT22;65828;44.726;37.764;2022-12-20T13:08:47;10.62;37.05
76855;DHT22;65828;44.726;37.764;2022-12-20T13:11:44;10.37;37.97
76855;DHT22;65828;44.726;37.764;2022-12-20T13:14:47;10.12;39.05
76855;DHT22;65828;44.726;37.764;2022-12-20T13:17:51;9.98;38.56
76855;DHT22;65828;44.726;37.764;2022-12-20T13:21:15;9.93;38.59
76855;DHT22;65828;44.726;37.764;2022-12-20T13:27:47;9.60;39.43
76855;DHT22;65828;44.726;37.764;2022-12-20T13:30:37;9.55;39.54
76855;DHT22;65828;44.726;37.764;2022-12-20T13:33:47;9.83;39.14
76855;DHT22;65828;44.726;37.764;2022-12-20T13:36:38;10.22;37.59
76855;DHT22;65828;44.726;37.764;2022-12-20T13:42:40;11.17;35.79
76855;DHT22;65828;44.726;37.764;2022-12-20T13:45:32;11.53;35.08
76855;DHT22;65828;44.726;37.764;2022-12-20T13:51:31;11.57;34.17
76855;DHT22;65828;44.726;37.764;2022-12-20T13:54:20;11.23;35.34
76855;DHT22;65828;44.726;37.764;2022-12-20T13:57:44;10.85;36.16
76855;DHT22;65828;44.726;37.764;2022-12-20T14:00:39;10.63;36.71
76855;DHT22;65828;44.726;37.764;2022-12-20T14:03:49;10.40;37.26
76855;DHT22;65828;44.726;37.764;2022-12-20T14:06:56;10.16;37.90
76855;DHT22;65828;44.726;37.764;2022-12-20T14:09:47;10.00;38.07
76855;DHT22;65828;44.726;37.764;2022-12-20T14:12:53;9.62;38.88
76855;DHT22;65828;44.726;37.764;2022-12-20T14:15:54;9.39;39.30
76855;DHT22;65828;44.726;37.764;2022-12-20T14:18:59;9.17;39.80
76855;DHT22;65828;44.726;37.764;2022-12-20T14:21:58;8.93;40.34
76855;DHT22;65828;44.726;37.764;2022-12-20T14:24:51;8.75;41.49
76855;DHT22;65828;44.726;37.764;2022-12-20T14:27:44;8.63;41.71
76855;DHT22;65828;44.726;37.764;2022-12-20T14:30:40;8.48;42.14
76855;DHT22;65828;44.726;37.764;2022-12-20T14:33:40;8.39;42.71
76855;DHT22;65828;44.726;37.764;2022-12-20T14:36:38;8.19;41.82
76855;DHT22;65828;44.726;37.764;2022-12-20T14:39:35;8.08;42.70
76855;DHT22;65828;44.726;37.764;2022-12-20T14:42:34;7.99;43.10
76855;DHT22;65828;44.726;37.764;2022-12-20T14:45:26;7.88;43.13
76855;DHT22;65828;44.726;37.764;2022-12-20T14:48:17;7.82;43.92
76855;DHT22;65828;44.726;37.764;2022-12-20T14:51:09;7.69;44.05
76855;DHT22;65828;44.726;37.764;2022-12-20T14:54:21;7.53;44.77
76855;DHT22;65828;44.726;37.764;2022-12-20T14:57:25;7.38;45.16
76855;DHT22;65828;44.726;37.764;2022-12-20T15:00:22;7.29;46.14
76855;DHT22;65828;44.726;37.764;2022-12-20T15:03:22;7.28;45.77
76855;DHT22;65828;44.726;37.764;2022-12-20T15:06:44;7.26;45.56
76855;DHT22;65828;44.726;37.764;2022-12-20T15:09:42;7.20;46.90
76855;DHT22;65828;44.726;37.764;2022-12-20T15:12:27;7.16;47.31
76855;DHT22;65828;44.726;37.764;2022-12-20T15:15:31;7.02;47.00
76855;DHT22;65828;44.726;37.764;2022-12-20T15:18:33;6.93;47.05
76855;DHT22;65828;44.726;37.764;2022-12-20T15:21:38;6.76;48.25
76855;DHT22;65828;44.726;37.764;2022-12-20T15:24:40;6.54;49.86
76855;DHT22;65828;44.726;37.764;2022-12-20T15:27:41;6.37;50.10
76855;DHT22;65828;44.726;37.764;2022-12-20T15:30:39;6.38;50.67
76855;DHT22;65828;44.726;37.764;2022-12-20T15:33:38;6.25;51.15
76855;DHT22;65828;44.726;37.764;2022-12-20T15:36:18;6.19;50.95
76855;DHT22;65828;44.726;37.764;2022-12-20T15:39:10;6.17;51.32
76855;DHT22;65828;44.726;37.764;2022-12-20T15:41:47;6.16;49.86
76855;DHT22;65828;44.726;37.764;2022-12-20T15:44:40;6.19;49.63
76855;DHT22;65828;44.726;37.764;2022-12-20T15:47:16;6.25;49.46
76855;DHT22;65828;44.726;37.764;2022-12-20T15:49:52;6.23;50.96
76855;DHT22;65828;44.726;37.764;2022-12-20T15:52:28;6.08;51.24
76855;DHT22;65828;44.726;37.764;2022-12-20T15:55:04;5.94;51.16
76855;DHT22;65828;44.726;37.764;2022-12-20T15:58:03;5.87;51.35
76855;DHT22;65828;44.726;37.764;2022-12-20T16:00:45;5.91;51.35
76855;DHT22;65828;44.726;37.764;2022-12-20T16:04:02;5.92;51.80
76855;DHT22;65828;44.726;37.764;2022-12-20T16:06:57;5.93;52.06
76855;DHT22;65828;44.726;37.764;2022-12-20T16:09:59;5.92;52.18
76855;DHT22;65828;44.726;37.764;2022-12-20T16:12:56;5.81;52.32
76855;DHT22;65828;44.726;37.764;2022-12-20T16:15:56;5.55;52.65
76855;DHT22;65828;44.726;37.764;2022-12-20T16:18:50;5.41;52.52
76855;DHT22;65828;44.726;37.764;2022-12-20T16:21:51;5.37;51.69
76855;DHT22;65828;44.726;37.764;2022-12-20T16:24:46;5.47;51.83
76855;DHT22;65828;44.726;37.764;2022-12-20T16:27:47;5.55;51.69
76855;DHT22;65828;44.726;37.764;2022-12-20T16:30:36;5.64;51.00
76855;DHT22;65828;44.726;37.764;2022-12-20T16:33:23;5.70;50.92
76855;DHT22;65828;44.726;37.764;2022-12-20T16:36:16;5.75;49.85
76855;DHT22;65828;44.726;37.764;2022-12-20T16:39:15;5.81;47.73
76855;DHT22;65828;44.726;37.764;2022-12-20T16:42:16;5.80;49.32
76855;DHT22;65828;44.726;37.764;2022-12-20T16:45:32;5.59;48.89
76855;DHT22;65828;44.726;37.764;2022-12-20T16:48:35;5.60;48.37
76855;DHT22;65828;44.726;37.764;2022-12-20T16:51:44;5.61;48.66
76855;DHT22;65828;44.726;37.764;2022-12-20T16:54:34;5.60;47.12
76855;DHT22;65828;44.726;37.764;2022-12-20T16:57:09;5.54;49.46
76855;DHT22;65828;44.726;37.764;2022-12-20T16:59:44;5.43;47.67
76855;DHT22;65828;44.726;37.764;2022-12-20T17:02:30;5.47;47.72
76855;DHT22;65828;44.726;37.764;2022-12-20T17:05:08;5.50;47.96
76855;DHT22;65828;44.726;37.764;2022-12-20T17:07:45;5.60;45.38
76855;DHT22;65828;44.726;37.764;2022-12-20T17:10:43;5.64;47.55
76855;DHT22;65828;44.726;37.764;2022-12-20T17:13:45;5.50;46.76
76855;DHT22;65828;44.726;37.764;2022-12-20T17:16:46;5.34;46.58
76855;DHT22;65828;44.726;37.764;2022-12-20T17:19:42;5.33;45.90
76855;DHT22;65828;44.726;37.764;2022-12-20T17:22:44;5.40;47.03
76855;DHT22;65828;44.726;37.764;2022-12-20T17:25:49;5.46;44.96
76855;DHT22;65828;44.726;37.764;2022-12-20T17:28:48;5.51;46.98
76855;DHT22;65828;44.726;37.764;2022-12-20T17:31:45;5.52;45.31
76855;DHT22;65828;44.726;37.764;2022-12-20T17:34:46;5.60;44.02
76855;DHT22;65828;44.726;37.764;2022-12-20T17:37:46;5.62;44.61
76855;DHT22;65828;44.726;37.764;2022-12-20T17:40:44;5.45;45.39
76855;DHT22;65828;44.726;37.764;2022-12-20T17:43:42;5.31;44.99
76855;DHT22;65828;44.726;37.764;2022-12-20T17:46:47;5.31;44.22
76855;DHT22;65828;44.726;37.764;2022-12-20T17:49:29;5.34;44.22
76855;DHT22;65828;44.726;37.764;2022-12-20T17:52:03;5.30;44.28
76855;DHT22;65828;44.726;37.764;2022-12-20T17:54:37;5.18;43.69
76855;DHT22;65828;44.726;37.764;2022-12-20T17:57:16;5.23;42.53
76855;DHT22;65828;44.726;37.764;2022-12-20T17:59:52;5.32;43.32
76855;DHT22;65828;44.726;37.764;2022-12-20T18:02:26;5.32;42.75
76855;DHT22;65828;44.726;37.764;2022-12-20T18:05:17;5.30;44.38
76855;DHT22;65828;44.726;37.764;2022-12-20T18:08:19;5.21;43.82
76855;DHT22;65828;44.726;37.764;2022-12-20T18:11:25;5.02;43.85
76855;DHT22;65828;44.726;37.764;2022-12-20T18:14:24;4.89;42.64
76855;DHT22;65828;44.726;37.764;2022-12-20T18:17:28;4.92;42.35
76855;DHT22;65828;44.726;37.764;2022-12-20T18:20:30;4.97;43.42
76855;DHT22;65828;44.726;37.764;2022-12-20T18:23:04;5.06;43.61
76855;DHT22;65828;44.726;37.764;2022-12-20T18:25:40;5.11;43.29
76855;DHT22;65828;44.726;37.764;2022-12-20T18:28:16;5.17;41.86
76855;DHT22;65828;44.726;37.764;2022-12-20T18:30:59;5.16;42.65
76855;DHT22;65828;44.726;37.764;2022-12-20T18:33:34;5.02;43.96
76855;DHT22;65828;44.726;37.764;2022-12-20T18:36:13;4.83;43.51
76855;DHT22;65828;44.726;37.764;2022-12-20T18:38:50;4.77;44.44
76855;DHT22;65828;44.726;37.764;2022-12-20T18:41:52;4.83;45.02
76855;DHT22;65828;44.726;37.764;2022-12-20T18:44:32;4.93;44.91
76855;DHT22;65828;44.726;37.764;2022-12-20T18:47:37;5.01;45.24
76855;DHT22;65828;44.726;37.764;2022-12-20T18:50:36;5.04;46.58
76855;DHT22;65828;44.726;37.764;2022-12-20T18:53:38;4.79;46.82
76855;DHT22;65828;44.726;37.764;2022-12-20T18:56:31;4.63;46.70
76855;DHT22;65828;44.726;37.764;2022-12-20T18:59:22;4.50;46.97
76855;DHT22;65828;44.726;37.764;2022-12-20T19:02:21;4.51;47.43
76855;DHT22;65828;44.726;37.764;2022-12-20T19:04:57;4.59;48.25
76855;DHT22;65828;44.726;37.764;2022-12-20T19:07:30;4.71;47.87
76855;DHT22;65828;44.726;37.764;2022-12-20T19:10:11;4.79;48.12
76855;DHT22;65828;44.726;37.764;2022-12-20T19:12:47;4.68;48.64
76855;DHT22;65828;44.726;37.764;2022-12-20T19:15:47;4.61;48.44
76855;DHT22;65828;44.726;37.764;2022-12-20T19:18:49;4.59;49.22
76855;DHT22;65828;44.726;37.764;2022-12-20T19:21:25;4.44;50.24
76855;DHT22;65828;44.726;37.764;2022-12-20T19:24:04;4.47;50.42
76855;DHT22;65828;44.726;37.764;2022-12-20T19:26:41;4.50;51.03
76855;DHT22;65828;44.726;37.764;2022-12-20T19:29:36;4.54;50.30
76855;DHT22;65828;44.726;37.764;2022-12-20T19:32:41;4.47;51.09
76855;DHT22;65828;44.726;37.764;2022-12-20T19:35:37;4.41;52.35
76855;DHT22;65828;44.726;37.764;2022-12-20T19:38:33;4.39;52.03
76855;DHT22;65828;44.726;37.764;2022-12-20T19:41:26;4.47;52.04
76855;DHT22;65828;44.726;37.764;2022-12-20T19:44:15;4.58;52.83
76855;DHT22;65828;44.726;37.764;2022-12-20T19:47:10;4.49;52.49
76855;DHT22;65828;44.726;37.764;2022-12-20T19:50:04;4.39;53.61